Terminal Aerodrome Forecast
Issued by NWS

Home | Current Version | Previous Version | Text Only | Print | Product List | Glossary On
Versions: 1 2 3 4 5 6 7 8 9 10 11 12 13 14
842
FTAK31 PAJN 232335
TAFAKT
TAF
PAKT 232335Z 2400/2424 16010KT P6SM FEW008 BKN025 OVC050
      TEMPO 2400/2404 6SM -RA FEW006 OVC012
     FM240400 16005KT P6SM VCSH SCT010 BKN040 OVC050
     FM241200 16012KT 3SM -RA BR OVC010
     FM242100 16012G20KT P6SM -RA SCT010 SCT025 OVC040
      AMD LTD TO CLD VIS AND WIND 2406/2415=

USA.gov is the U.S. government's official web portal to all federal, state and local government web resources and services.